Flight Track Log - Related Links

Times and Time Zones

All times are in EDT time to prevent confusion due to time zone crossing. See the DAL268 flight status page for this flight to view local times or setup timezone preferences in your user account.

Time Position Orientation Groundspeed Altitude Reporting Facility
EDT Latitude Longitude Course Direction KTS MPH feet Rate Location/Type
Sun 23:19:47 40.6370 -73.7800 264° West  Level FlightAware ADS-B
Sun 23:29:13 40.6380 -73.7790 360° North 2 2 11 Level FlightAware ADS-B
Sun 23:31:00 40.5396 -73.4854 114° Southeast  Level FlightAware Approximate
Sun 23:31:39 40.6370 -73.7790 114° Southeast 2 2  Level FlightAware ADS-B
Sun 23:33:21 40.6360 -73.7790 180° South 2 2 19 Level FlightAware ADS-B
Sun 23:36:00 40.4918 -73.3422 114° Southeast  Level FlightAware Approximate
Sun 23:37:00 40.4455 -73.1728 119° Southeast  Level FlightAware Approximate
Sun 23:38:00 40.3833 -73.0105 90° East  Level FlightAware Approximate
Sun 23:38:24 40.6350 -73.7780 90° East 16 18  Level FlightAware ADS-B
Sun 23:39:26 40.6340 -73.7790 217° Southwest 20 23 32 Level FlightAware ADS-B
Sun 23:40:06 40.6330 -73.7770 123° Southeast 24 28 37 Level FlightAware ADS-B
Sun 23:40:48 40.6320 -73.7750 123° Southeast 23 26 40 Level FlightAware ADS-B
Sun 23:41:30 40.6310 -73.7740 143° Southeast 19 22 44 Level FlightAware ADS-B
Sun 23:42:12 40.6310 -73.7730 90° East 12 14 49 Level FlightAware ADS-B
Sun 23:42:52 40.6300 -73.7720 143° Southeast 16 18 55 Level FlightAware ADS-B
Sun 23:43:53 40.6290 -73.7710 143° Southeast 18 21 63 Level FlightAware ADS-B
Sun 23:45:15 40.6280 -73.7720 217° Southwest 14 16 80 Level FlightAware ADS-B
Sun 23:45:56 40.6280 -73.7730 270° West 126 Level FlightAware ADS-B
Sun 23:46:43 40.6300 -73.7770 303° West 70 81 176 Level FlightAware ADS-B
Sun 23:47:03 40.6350 -73.7880 301° West 130 150 327 Level FlightAware ADS-B
Sun 23:47:23 40.6420 -73.8020 303° West 175 201 514 Level FlightAware ADS-B
Sun 23:47:38 40.6500 -73.8190 302° West 177 204 300 1,579 Climbing FlightAware ADS-B
Sun 23:48:01 40.6550 -73.8430 285° West 181 208 1,000 1,286 Climbing FlightAware ADS-B
Sun 23:48:34 40.6410 -73.8760 241° Southwest 216 249 1,500 800 Climbing FlightAware ADS-B
Sun 23:48:46 40.6290 -73.8820 201° Southwest 230 265 1,600 692 Climbing FlightAware ADS-B
Sun 23:49:00 40.6140 -73.8850 189° South 248 285 1,800 955 Climbing FlightAware ADS-B
Sun 23:49:30 40.5790 -73.8730 165° South 272 313 2,300 1,241 Climbing FlightAware ADS-B
Sun 23:49:58 40.5510 -73.8430 141° Southeast 288 331 3,000 1,714 Climbing FlightAware ADS-B
Sun 23:50:26 40.5330 -73.7990 118° Southeast 295 339 3,900 1,925 Climbing FlightAware ADS-B
Sun 23:50:51 40.5274 -73.7530 99° East 296 341 4,700 1,650 Climbing FlightAware ADS-B
Sun 23:51:06 40.5243 -73.7259 99° East 304 350 5,000 2,250 Climbing FlightAware ADS-B
Sun 23:51:23 40.5210 -73.6951 98° East 299 344 5,900 2,813 Climbing FlightAware ADS-B
Sun 23:51:38 40.5181 -73.6681 98° East 299 344 6,500 1,935 Climbing FlightAware ADS-B
Sun 23:51:54 40.5152 -73.6389 97° East 307 353 6,900 1,500 Climbing FlightAware ADS-B
Sun 23:52:10 40.5122 -73.6088 97° East 316 364 7,300 1,500 Climbing FlightAware ADS-B
Sun 23:52:22 40.5085 -73.5859 102° East 325 374 7,600 2,000 Climbing FlightAware ADS-B
Sun 23:52:37 40.5026 -73.5572 105° East 326 375 8,200 2,400 Climbing FlightAware ADS-B
Sun 23:52:52 40.4962 -73.5286 106° East 327 376 8,800 2,323 Climbing FlightAware ADS-B
Sun 23:53:08 40.4896 -73.4979 106° East 328 377 9,400 1,935 Climbing FlightAware ADS-B
Sun 23:53:23 40.4832 -73.4687 106° East 331 381 9,800 968 Climbing FlightAware ADS-B
Sun 23:53:39 40.4765 -73.4366 105° East 351 404 9,900 1,149 Climbing FlightAware ADS-B
Sun 23:54:10 40.4637 -73.3728 105° East 367 422 10,700 1,418 Climbing FlightAware ADS-B
Sun 23:54:34 40.4534 -73.3177 104° East 385 443 11,200 1,200 Climbing FlightAware ADS-B
Sun 23:55:05 40.4395 -73.2451 104° East 406 467 11,800 1,355 Climbing FlightAware ADS-B
Sun 23:55:36 40.4244 -73.1693 105° East 424 488 12,600 1,869 Climbing FlightAware ADS-B
Sun 23:56:06 40.4091 -73.0939 105° East 430 495 13,700 2,036 Climbing FlightAware ADS-B
Sun 23:56:32 40.3967 -73.0276 104° East 438 504 14,500 1,660 Climbing FlightAware ADS-B
Sun 23:56:53 40.3927 -72.9746 96° East 441 507 15,000 1,636 Climbing FlightAware ADS-B
Sun 23:57:05 40.3950 -72.9427 85° East 438 504 15,400 2,348 Climbing FlightAware ADS-B
Sun 23:57:16 40.4001 -72.9118 78° East 432 497 15,900 1,571 Climbing FlightAware ADS-B
Sun 23:57:47 40.4192 -72.8328 72° East 447 514 16,500 1,967 Climbing FlightAware ADS-B
Sun 23:58:17 40.4383 -72.7551 72° East 445 512 17,900 2,000 Climbing FlightAware ADS-B
Sun 23:58:35 40.4520 -72.7097 68° East 450 518 18,100 1,286 Climbing FlightAware ADS-B
Sun 23:58:59 40.4770 -72.6519 60° Northeast 452 520 18,800 1,700 Climbing FlightAware ADS-B
Sun 23:59:35 40.5205 -72.5718 54° Northeast 453 521 19,800 1,818 Climbing FlightAware ADS-B
Mon 00:00:05 40.5628 -72.5093 48° Northeast 455 524 20,800 1,770 Climbing FlightAware ADS-B
Mon 00:00:36 40.6056 -72.4444 49° Northeast 462 532 21,600 1,574 Climbing FlightAware ADS-B
Mon 00:01:06 40.6482 -72.3797 49° Northeast 466 536 22,400 1,574 Climbing FlightAware ADS-B
Mon 00:01:37 40.6901 -72.3117 51° Northeast 472 543 23,200 1,548 Climbing FlightAware ADS-B
Mon 00:02:08 40.7332 -72.2445 50° Northeast 476 548 24,000 1,475 Climbing FlightAware ADS-B
Mon 00:02:38 40.7753 -72.1743 52° Northeast 482 555 24,700 1,300 Climbing FlightAware ADS-B
Mon 00:03:08 40.8186 -72.1053 50° Northeast 486 559 25,300 1,180 Climbing FlightAware ADS-B
Mon 00:03:39 40.8620 -72.0333 51° Northeast 493 567 25,900 1,180 Climbing FlightAware ADS-B
Mon 00:04:09 40.9056 -71.9627 51° Northeast 496 571 26,500 1,100 Climbing FlightAware ADS-B
Mon 00:04:39 40.9494 -71.8914 51° Northeast 503 579 27,000 1,082 Climbing FlightAware ADS-B
Mon 00:05:10 40.9941 -71.8169 52° Northeast 506 582 27,600 1,082 Climbing FlightAware ADS-B
Mon 00:05:40 41.0386 -71.7440 51° Northeast 508 585 28,100 984 Climbing FlightAware ADS-B
Mon 00:06:11 41.0847 -71.6682 51° Northeast 515 593 28,600 1,174 Climbing FlightAware ADS-B
Mon 00:07:12 41.1730 -71.5230 51° Northeast 513 590 29,900 1,307 Climbing FlightAware ADS-B
Mon 00:07:52 41.2310 -71.4270 51° Northeast 510 587 30,800 825 Climbing FlightAware ADS-B
Mon 00:08:32 41.2920 -71.3270 51° Northeast 510 587 31,000 135 Climbing FlightAware ADS-B
Mon 00:09:21 41.3650 -71.2040 52° Northeast 504 580 31,000  Level FlightAware ADS-B
Mon 00:10:01 41.4240 -71.1050 52° Northeast 506 582 31,000  Level FlightAware ADS-B
Mon 00:10:41 41.4820 -71.0070 52° Northeast 507 583 31,000  Level FlightAware ADS-B
Mon 00:11:26 41.5450 -70.9020 51° Northeast 506 582 31,000  Level FlightAware ADS-B
Mon 00:12:06 41.6070 -70.7960 52° Northeast 506 582 31,000  Level FlightAware ADS-B
Mon 00:12:52 41.6690 -70.6920 51° Northeast 512 589 31,000  Level FlightAware ADS-B
Mon 00:13:29 41.7160 -70.6140 51° Northeast 512 589 31,000  Level FlightAware ADS-B
Mon 00:14:16 41.7930 -70.4780 53° Northeast 520 598 31,000  Level FlightAware ADS-B
Mon 00:14:56 41.8550 -70.3710 52° Northeast 516 594 31,000  Level FlightAware ADS-B
Mon 00:15:36 41.9110 -70.2740 52° Northeast 515 593 31,000  Level FlightAware ADS-B
Mon 00:16:21 41.9800 -70.1540 52° Northeast 514 592 31,000  Level FlightAware ADS-B
Mon 00:16:57 42.0350 -70.0590 52° Northeast 514 592 31,000  Level FlightAware ADS-B
Mon 00:17:42 42.0990 -69.9470 52° Northeast 514 592 31,000  Level FlightAware ADS-B
Mon 00:18:22 42.1580 -69.8440 52° Northeast 517 595 31,000  Level FlightAware ADS-B
Mon 00:19:07 42.2240 -69.7270 53° Northeast 518 596 31,000  Level FlightAware ADS-B
Mon 00:19:48 42.2860 -69.6180 52° Northeast 526 605 31,000  Level FlightAware ADS-B
Mon 00:20:28 42.3450 -69.5130 53° Northeast 529 609 31,000  Level FlightAware ADS-B
Mon 00:21:16 42.4160 -69.3860 53° Northeast 529 609 31,000  Level FlightAware ADS-B
Mon 00:21:56 42.4730 -69.2830 53° Northeast 530 610 31,000  Level FlightAware ADS-B
Mon 00:22:31 42.5210 -69.1980 53° Northeast 531 611 31,000  Level FlightAware ADS-B
Mon 00:23:19 42.5980 -69.0600 53° Northeast 526 605 31,000  Level FlightAware ADS-B
Mon 00:24:02 42.6520 -68.9610 53° Northeast 526 605 31,000  Level FlightAware ADS-B
Mon 00:24:46 42.7180 -68.8410 53° Northeast 532 612 31,000  Level FlightAware ADS-B
Mon 00:25:21 42.7700 -68.7470 53° Northeast 528 608 31,000  Level FlightAware ADS-B
Mon 00:26:01 42.8300 -68.6370 53° Northeast 528 608 31,000  Level FlightAware ADS-B
Mon 00:27:06 42.9310 -68.4510 53° Northeast 527 606 31,000  Level FlightAware ADS-B
Mon 00:28:15 43.0260 -68.2750 54° Northeast 527 606 31,000  Level FlightAware ADS-B
Mon 00:28:56 43.0910 -68.1560 53° Northeast 31,000  Level FlightAware ADS-B
Mon 00:31:15 43.2920 -67.7800 54° Northeast 524 603 31,000  Level FlightAware ADS-B
Mon 00:31:56 43.3510 -67.6690 54° Northeast 526 605 31,000  Level FlightAware ADS-B
Mon 00:32:42 43.4170 -67.5430 54° Northeast 527 606 31,000  Level FlightAware ADS-B
Mon 00:33:21 43.4740 -67.4360 54° Northeast 528 608 31,000  Level FlightAware ADS-B
Mon 00:34:02 43.5320 -67.3230 55° Northeast 529 609 31,000  Level FlightAware ADS-B
Mon 00:34:46 43.5970 -67.2010 54° Northeast 530 610 31,000  Level FlightAware ADS-B
Mon 00:35:32 43.6620 -67.0740 55° Northeast 530 610 31,000  Level FlightAware ADS-B
Mon 00:36:12 43.7200 -66.9620 54° Northeast 536 617 31,000  Level FlightAware ADS-B
Mon 00:36:56 43.7830 -66.8400 54° Northeast 535 616 31,000  Level FlightAware ADS-B
Mon 00:37:32 43.8340 -66.7390 55° Northeast 533 613 31,000  Level FlightAware ADS-B
Mon 00:38:16 43.8980 -66.6140 55° Northeast 534 615 31,000  Level FlightAware ADS-B
Mon 00:38:57 43.9550 -66.5020 55° Northeast 535 616 31,000  Level FlightAware ADS-B
Mon 00:39:41 44.0190 -66.3780 54° Northeast 534 615 31,000  Level FlightAware ADS-B
Mon 00:40:22 44.0770 -66.2630 55° Northeast 535 616 31,000  Level FlightAware ADS-B
Mon 00:41:01 44.1330 -66.1500 55° Northeast 536 617 31,000  Level FlightAware ADS-B
Mon 00:41:46 44.1960 -66.0250 55° Northeast 538 619 31,000  Level FlightAware ADS-B
Mon 00:42:27 44.2510 -65.9140 55° Northeast 539 620 31,000  Level FlightAware ADS-B
Mon 00:43:12 44.3170 -65.7800 55° Northeast 537 618 31,000  Level FlightAware ADS-B
Mon 00:43:52 44.3740 -65.6660 55° Northeast 537 618 31,000  Level FlightAware ADS-B
Mon 00:44:36 44.4380 -65.5340 56° Northeast 537 618 31,000  Level FlightAware ADS-B
Mon 00:45:16 44.4910 -65.4250 56° Northeast 536 617 31,000  Level FlightAware ADS-B
Mon 00:45:56 44.5490 -65.3080 55° Northeast 535 616 31,000  Level FlightAware ADS-B
Mon 00:46:41 44.6110 -65.1820 55° Northeast 529 609 31,000  Level FlightAware ADS-B
Mon 00:47:22 44.6680 -65.0640 56° Northeast 528 608 31,000  Level FlightAware ADS-B
Mon 00:48:01 44.7220 -64.9500 56° Northeast 528 608 31,000  Level FlightAware ADS-B
Mon 00:48:47 44.7800 -64.8320 55° Northeast 529 609 31,000  Level FlightAware ADS-B
Mon 00:49:29 44.8450 -64.6960 56° Northeast 539 620 31,000  Level FlightAware ADS-B
Mon 00:50:12 44.9060 -64.5670 56° Northeast 542 624 31,000  Level FlightAware ADS-B
Mon 00:50:54 44.9640 -64.4430 57° Northeast 546 628 31,000  Level FlightAware ADS-B
Mon 00:51:34 45.0200 -64.3240 56° Northeast 547 629 31,000  Level FlightAware ADS-B
Mon 00:52:18 45.0800 -64.1990 56° Northeast 548 631 31,000  Level FlightAware ADS-B
Mon 00:52:55 45.1330 -64.0850 57° Northeast 549 632 31,000  Level FlightAware ADS-B
Mon 00:53:41 45.1970 -63.9470 57° Northeast 550 633 31,000  Level FlightAware ADS-B
Mon 00:54:21 45.2530 -63.8260 57° Northeast 551 634 31,000  Level FlightAware ADS-B
Mon 00:55:06 45.3170 -63.6870 57° Northeast 552 635 31,000  Level FlightAware ADS-B
Mon 00:55:46 45.3710 -63.5710 56° Northeast 555 639 31,000  Level FlightAware ADS-B
Mon 00:56:31 45.4350 -63.4310 57° Northeast 558 642 31,000  Level FlightAware ADS-B
Mon 00:57:11 45.4910 -63.3070 57° Northeast 560 644 31,000  Level FlightAware ADS-B
Mon 00:57:57 45.5500 -63.1770 57° Northeast 560 644 31,000  Level FlightAware ADS-B
Mon 00:59:06 45.6440 -62.9690 57° Northeast 560 644 31,000  Level FlightAware ADS-B
Mon 01:00:02 45.7180 -62.8060 57° Northeast 562 647 31,000  Level FlightAware ADS-B
Mon 01:00:38 45.7610 -62.7100 57° Northeast 562 647 31,000  Level FlightAware ADS-B
Mon 01:01:26 45.8190 -62.5820 57° Northeast 562 647 31,000  Level FlightAware ADS-B
Mon 01:02:02 45.8620 -62.4870 57° Northeast 562 647 31,000  Level FlightAware ADS-B
Mon 01:02:50 45.9200 -62.3590 57° Northeast 562 647 31,000  Level FlightAware ADS-B
Mon 01:03:27 45.9650 -62.2600 57° Northeast 562 647 31,000  Level FlightAware ADS-B
Mon 01:04:14 46.0770 -61.9870 59° Northeast 552 635 31,000  Level FlightAware ADS-B
Mon 01:04:54 46.1320 -61.8590 58° Northeast 554 638 31,000  Level FlightAware ADS-B
Mon 01:05:36 46.1880 -61.7310 58° Northeast 555 639 31,000  Level FlightAware ADS-B
Mon 01:06:20 46.2480 -61.5890 59° Northeast 556 640 31,000  Level FlightAware ADS-B
Mon 01:07:00 46.3010 -61.4660 58° Northeast 556 640 31,000  Level FlightAware ADS-B
Mon 01:07:44 46.3610 -61.3260 58° Northeast 555 639 31,000  Level FlightAware ADS-B
Mon 01:08:24 46.4150 -61.1960 59° Northeast 555 639 31,000  Level FlightAware ADS-B
Mon 01:09:08 46.4730 -61.0600 58° Northeast 556 640 31,000  Level FlightAware ADS-B
Mon 01:09:47 46.5240 -60.9350 59° Northeast 556 640 31,000  Level FlightAware ADS-B
Mon 01:10:32 46.5860 -60.7880 58° Northeast 555 639 31,000  Level FlightAware ADS-B
Mon 01:11:10 46.6350 -60.6710 59° Northeast 554 638 31,000  Level FlightAware ADS-B
Mon 01:11:54 46.6940 -60.5270 59° Northeast 554 638 31,000  Level FlightAware ADS-B
Mon 01:12:34 46.7460 -60.3980 59° Northeast 557 641 31,000  Level FlightAware ADS-B
Mon 01:13:18 46.8030 -60.2600 59° Northeast 558 642 31,000  Level FlightAware ADS-B
Mon 01:13:58 46.8560 -60.1300 59° Northeast 561 646 31,000  Level FlightAware ADS-B
Mon 01:14:42 46.9150 -59.9820 60° Northeast 565 650 31,000  Level FlightAware ADS-B
Mon 01:15:22 46.9690 -59.8500 59° Northeast 566 651 31,000  Level FlightAware ADS-B
Mon 01:16:06 47.0260 -59.7080 59° Northeast 565 650 31,000  Level FlightAware ADS-B
Mon 01:16:46 47.0790 -59.5730 60° Northeast 566 651 31,000  Level FlightAware ADS-B
Mon 01:17:30 47.1370 -59.4260 60° Northeast 568 654 31,000  Level FlightAware ADS-B
Mon 01:18:25 47.2020 -59.2630 60° Northeast 568 654 31,000  Level FlightAware ADS-B
Mon 01:19:01 47.2420 -59.1600 60° Northeast 568 654 31,000  Level FlightAware ADS-B
Mon 01:19:49 47.2960 -59.0230 60° Northeast 568 654 31,000  Level FlightAware ADS-B
Mon 01:20:25 47.3360 -58.9200 60° Northeast 568 654 31,000  Level FlightAware ADS-B
Mon 01:21:13 47.4260 -58.6840 61° Northeast 566 651 31,000  Level FlightAware ADS-B
Mon 01:22:05 47.4830 -58.5370 60° Northeast 565 650 31,000  Level FlightAware ADS-B
Mon 01:22:53 47.5370 -58.4000 60° Northeast 565 650 31,000  Level FlightAware ADS-B
Mon 01:23:33 47.6050 -58.2140 61° Northeast 562 647 31,000  Level FlightAware ADS-B
Mon 01:24:13 47.6550 -58.0830 60° Northeast 561 646 31,000  Level FlightAware ADS-B
Mon 01:24:58 47.7120 -57.9290 61° Northeast 559 643 31,000  Level FlightAware ADS-B
Mon 01:25:33 47.7560 -57.8120 61° Northeast 558 642 31,000  Level FlightAware ADS-B
Mon 01:26:17 47.8070 -57.6590 64° Northeast 551 634 31,000  Level FlightAware ADS-B
Mon 01:27:03 47.8560 -57.5090 64° Northeast 549 632 31,000  Level FlightAware ADS-B
Mon 01:27:44 47.9000 -57.3760 64° Northeast 551 634 31,000  Level FlightAware ADS-B
Mon 01:28:28 47.9490 -57.2260 64° Northeast 553 636 31,000  Level FlightAware ADS-B
Mon 01:29:08 47.9960 -57.0820 64° Northeast 553 636 31,000  Level FlightAware ADS-B
Mon 01:29:53 48.0460 -56.9280 64° Northeast 552 635 31,000  Level FlightAware ADS-B
Mon 01:30:32 48.0910 -56.7870 64° Northeast 552 635 31,000  Level FlightAware ADS-B
Mon 01:31:13 48.1360 -56.6500 64° Northeast 553 636 31,000  Level FlightAware ADS-B
Mon 01:31:58 48.1860 -56.4940 64° Northeast 556 640 31,000 141 Level FlightAware ADS-B
Mon 01:32:38 48.2300 -56.3540 65° Northeast 560 644 31,200 706 Climbing FlightAware ADS-B
Mon 01:33:23 48.2770 -56.2070 64° Northeast 560 644 32,000 565 Climbing FlightAware ADS-B
Mon 01:34:03 48.3240 -56.0560 65° Northeast 560 644 32,000  Level FlightAware ADS-B
Mon 01:34:48 48.3730 -55.9020 64° Northeast 557 641 32,000  Level FlightAware ADS-B
Mon 01:35:27 48.4170 -55.7580 65° Northeast 556 640 32,000  Level FlightAware ADS-B
Mon 01:36:08 48.4600 -55.6180 65° Northeast 555 639 32,000  Level FlightAware ADS-B
Mon 01:36:48 48.5030 -55.4770 65° Northeast 555 639 32,000  Level FlightAware ADS-B
Mon 01:37:32 48.5510 -55.3190 65° Northeast 555 639 32,000  Level FlightAware ADS-B
Mon 01:38:12 48.5920 -55.1820 66° East 556 640 32,000  Level FlightAware ADS-B
Mon 01:38:57 48.6410 -55.0190 65° Northeast 555 639 32,000  Level FlightAware ADS-B
Mon 01:39:38 48.6840 -54.8780 65° Northeast 555 639 32,000  Level FlightAware ADS-B
Mon 01:40:23 48.7320 -54.7190 65° Northeast 554 638 32,000  Level FlightAware ADS-B
Mon 01:41:02 48.7730 -54.5810 66° East 553 636 32,000  Level FlightAware ADS-B
Mon 01:41:43 48.8150 -54.4360 66° East 552 635 32,000  Level FlightAware ADS-B
Mon 01:42:28 48.8610 -54.2800 66° East 550 633 32,000  Level FlightAware ADS-B
Mon 01:43:08 48.9020 -54.1360 67° East 549 632 32,000  Level FlightAware ADS-B
Mon 01:43:52 48.9480 -53.9770 66° East 545 627 32,000  Level FlightAware ADS-B
Mon 01:44:33 48.9880 -53.8370 66° East 545 627 32,000  Level FlightAware ADS-B
Mon 01:45:18 49.0340 -53.6790 66° East 545 627 32,000  Level FlightAware ADS-B
Mon 01:45:57 49.0740 -53.5370 67° East 546 628 32,000  Level FlightAware ADS-B
Mon 01:46:42 49.1180 -53.3790 67° East 545 627 32,000  Level FlightAware ADS-B
Mon 01:47:18 49.1520 -53.2580 67° East 546 628 32,000  Level FlightAware ADS-B
Mon 01:47:58 49.1920 -53.1160 67° East 547 629 32,000  Level FlightAware ADS-B
Mon 01:48:42 49.2350 -52.9600 67° East 547 629 32,000  Level FlightAware ADS-B
Mon 01:49:28 49.2810 -52.7920 67° East 546 628 32,000  Level FlightAware ADS-B
Mon 01:50:08 49.3190 -52.6530 67° East 547 629 32,000  Level FlightAware ADS-B
Mon 01:51:04 49.3730 -52.4530 67° East 547 629 32,000  Level FlightAware ADS-B
Mon 01:52:02 49.4290 -52.2450 67° East 548 631 32,000  Level FlightAware ADS-B
Mon 01:52:43 49.4680 -52.0970 68° East 547 629 32,000  Level FlightAware ADS-B
Mon 01:53:27 49.5110 -51.9350 68° East 548 631 32,000  Level FlightAware ADS-B
Mon 01:54:06 49.5480 -51.7940 68° East 548 631 32,000  Level FlightAware ADS-B
Mon 01:54:48 49.5850 -51.6520 68° East 548 631 32,000  Level FlightAware ADS-B
Mon 01:55:24 49.6140 -51.5410 68° East 548 631 32,000  Level FlightAware ADS-B
Mon 01:56:12 49.6530 -51.3930 68° East 548 631 32,000  Level FlightAware ADS-B
Mon 01:56:48 49.6820 -51.2820 68° East 548 631 32,000  Level FlightAware ADS-B
Mon 01:57:37 49.7210 -51.1310 68° East 548 631 32,000  Level FlightAware ADS-B
Mon 01:58:13 49.7500 -51.0190 68° East 548 631 32,000  Level FlightAware ADS-B
Mon 01:59:02 49.7900 -50.8680 68° East 548 631 32,000  Level FlightAware ADS-B
Mon 01:59:39 49.8200 -50.7530 68° East 548 631 32,000  Level FlightAware ADS-B
Mon 02:00:28 49.8590 -50.6010 68° East 548 631 32,000  Level FlightAware ADS-B
Mon 02:01:05 49.8890 -50.4870 68° East 548 631 32,000  Level FlightAware ADS-B
Mon 02:02:05 49.9380 -50.3000 68° East 548 631 32,000  Level FlightAware ADS-B
Mon 02:02:41 49.9670 -50.1890 68° East 548 631 32,000  Level FlightAware ADS-B
Mon 02:03:00 50.0000 -50.0000 69° East 516 594 32,000  Level ETMS Enhanced Traffic Management System
Mon 02:03:16 50.0500 -49.7500 69° East 540 621 32,000  Level Gander Center
Mon 02:03:29 50.0050 -50.0390 68° East 548 631 32,000  Level FlightAware ADS-B
Mon 02:03:35 50.0000 -50.0000 69° East 516 594 32,000  Level ETMS Enhanced Traffic Management System
Mon 02:04:05 50.0340 -49.9270 68° East 548 631 32,000  Level FlightAware ADS-B
Mon 02:04:16 50.0667 -49.5333 69° East 550 633 32,000  Level Gander Center
Mon 02:05:16 50.1500 -49.3000 61° Northeast 540 621 32,000  Level Gander Center
Mon 02:05:36 50.1500 -49.2167 90° East 550 633 32,000  Level Gander Center
Mon 02:06:36 50.2167 -49.0167 62° Northeast 540 621 32,000  Level Gander Center
Mon 02:07:36 50.2667 -48.7667 73° East 550 633 32,000  Level Gander Center
Mon 02:08:36 50.3167 -48.5667 69° East 550 633 32,000  Level Gander Center
Mon 02:09:36 50.3667 -48.3667 69° East 540 621 32,000 19 Level Gander Center
Mon 02:12:00 50.4371 -48.0697 69° East  Level FlightAware Approximate
Mon 02:19:00 50.7780 -46.5717 70° East  Level FlightAware Approximate
Mon 02:20:00 50.8251 -46.3559 71° East  Level FlightAware Approximate
Mon 02:21:00 50.8718 -46.1397 71° East  Level FlightAware Approximate
Mon 02:22:00 50.9182 -45.9231 71° East  Level FlightAware Approximate
Mon 02:23:00 50.9641 -45.7060 71° East  Level FlightAware Approximate
Mon 02:24:00 51.0096 -45.4885 72° East  Level FlightAware Approximate
Mon 02:25:00 51.0547 -45.2706 72° East  Level FlightAware Approximate
Mon 02:26:00 51.0994 -45.0523 72° East  Level FlightAware Approximate
Mon 02:27:00 51.1437 -44.8335 72° East  Level FlightAware Approximate
Mon 02:28:00 51.1876 -44.6143 72° East  Level FlightAware Approximate
Mon 02:29:00 51.2310 -44.3947 72° East  Level FlightAware Approximate
Mon 02:30:00 51.2741 -44.1747 73° East  Level FlightAware Approximate
Mon 02:31:00 51.3168 -43.9543 73° East  Level FlightAware Approximate
Mon 02:32:00 51.3590 -43.7335 73° East  Level FlightAware Approximate
Mon 02:33:00 51.4008 -43.5123 73° East  Level FlightAware Approximate
Mon 02:34:00 51.4422 -43.2906 73° East  Level FlightAware Approximate
Mon 02:35:00 51.4832 -43.0686 73° East  Level FlightAware Approximate
Mon 02:36:00 51.5238 -42.8462 74° East  Level FlightAware Approximate
Mon 02:37:00 51.5639 -42.6233 74° East  Level FlightAware Approximate
Mon 02:38:00 51.6036 -42.4001 74° East  Level FlightAware Approximate
Mon 02:39:00 51.6429 -42.1765 74° East  Level FlightAware Approximate
Mon 02:40:00 51.6818 -41.9525 74° East  Level FlightAware Approximate
Mon 02:41:00 51.7202 -41.7282 74° East  Level FlightAware Approximate
Mon 02:42:00 51.7583 -41.5034 75° East  Level FlightAware Approximate
Mon 02:43:00 51.7959 -41.2783 75° East  Level FlightAware Approximate
Mon 02:44:00 51.8330 -41.0528 75° East  Level FlightAware Approximate
Mon 02:45:00 51.8697 -40.8269 75° East  Level FlightAware Approximate
Mon 02:46:00 51.9060 -40.6007 75° East  Level FlightAware Approximate
Mon 02:47:00 51.9419 -40.3741 76° East  Level FlightAware Approximate
Mon 02:48:00 51.9773 -40.1471 76° East  Level FlightAware Approximate
Mon 02:49:00 52.0035 -39.9172 86° East  Level FlightAware Approximate
Mon 02:50:00 52.0130 -39.6833 86° East  Level FlightAware Approximate
Mon 02:51:00 52.0221 -39.4494 86° East  Level FlightAware Approximate
Mon 02:52:00 52.0307 -39.2153 86° East  Level FlightAware Approximate
Mon 02:53:00 52.0388 -38.9812 87° East  Level FlightAware Approximate
Mon 02:54:00 52.0465 -38.7469 87° East  Level FlightAware Approximate
Mon 02:55:00 52.0537 -38.5126 87° East  Level FlightAware Approximate
Mon 02:56:00 52.0604 -38.2782 87° East  Level FlightAware Approximate
Mon 02:57:00 52.0667 -38.0438 87° East  Level FlightAware Approximate
Mon 02:58:00 52.0725 -37.8093 88° East  Level FlightAware Approximate
Mon 02:59:00 52.0779 -37.5747 88° East  Level FlightAware Approximate
Mon 03:00:00 52.0828 -37.3401 88° East  Level FlightAware Approximate
Mon 03:01:00 52.0872 -37.1054 88° East  Level FlightAware Approximate
Mon 03:02:00 52.0911 -36.8707 88° East  Level FlightAware Approximate
Mon 03:03:00 52.0946 -36.6359 89° East  Level FlightAware Approximate
Mon 03:04:00 52.0976 -36.4011 89° East  Level FlightAware Approximate
Mon 03:05:00 52.1002 -36.1663 89° East  Level FlightAware Approximate
Mon 03:06:00 52.1023 -35.9314 89° East  Level FlightAware Approximate
Mon 03:07:00 52.1039 -35.6966 89° East  Level FlightAware Approximate
Mon 03:08:00 52.1050 -35.4617 89° East  Level FlightAware Approximate
Mon 03:09:00 52.1057 -35.2268 90° East  Level FlightAware Approximate
Mon 03:10:00 52.1059 -34.9919 90° East  Level FlightAware Approximate
Mon 03:11:00 52.1057 -34.7570 90° East  Level FlightAware Approximate
Mon 03:12:00 52.1050 -34.5221 90° East  Level FlightAware Approximate
Mon 03:13:00 52.1038 -34.2872 90° East  Level FlightAware Approximate
Mon 03:14:00 52.1021 -34.0524 91° East  Level FlightAware Approximate
Mon 03:15:00 52.1000 -33.8175 91° East  Level FlightAware Approximate
Mon 03:16:00 52.0974 -33.5827 91° East  Level FlightAware Approximate
Mon 03:17:00 52.0944 -33.3479 91° East  Level FlightAware Approximate
Mon 03:18:00 52.0909 -33.1131 91° East  Level FlightAware Approximate
Mon 03:19:00 52.0869 -32.8784 91° East  Level FlightAware Approximate
Mon 03:20:00 52.0824 -32.6437 92° East  Level FlightAware Approximate
Mon 03:21:00 52.0775 -32.4091 92° East  Level FlightAware Approximate
Mon 03:22:00 52.0721 -32.1745 92° East  Level FlightAware Approximate
Mon 03:23:00 52.0663 -31.9400 92° East  Level FlightAware Approximate
Mon 03:24:00 52.0600 -31.7056 92° East  Level FlightAware Approximate
Mon 03:25:00 52.0532 -31.4712 93° East  Level FlightAware Approximate
Mon 03:26:00 52.0460 -31.2369 93° East  Level FlightAware Approximate
Mon 03:27:00 52.0383 -31.0027 93° East  Level FlightAware Approximate
Mon 03:28:00 52.0301 -30.7685 93° East  Level FlightAware Approximate
Mon 03:29:00 52.0215 -30.5345 93° East  Level FlightAware Approximate
Mon 03:30:00 52.0124 -30.3005 94° East  Level FlightAware Approximate
Mon 03:31:00 52.0028 -30.0666 94° East  Level FlightAware Approximate
Mon 03:32:00 51.9906 -29.8332 95° East  Level FlightAware Approximate
Mon 03:33:00 51.9770 -29.5999 95° East  Level FlightAware Approximate
Mon 03:34:00 51.9629 -29.3669 96° East  Level FlightAware Approximate
Mon 03:35:00 51.9484 -29.1339 96° East  Level FlightAware Approximate
Mon 03:36:00 51.9334 -28.9012 96° East  Level FlightAware Approximate
Mon 03:37:00 51.9180 -28.6686 96° East  Level FlightAware Approximate
Mon 03:38:00 51.9021 -28.4361 96° East  Level FlightAware Approximate
Mon 03:39:00 51.8857 -28.2038 96° East  Level FlightAware Approximate
Mon 03:40:00 51.8689 -27.9717 97° East  Level FlightAware Approximate
Mon 03:41:00 51.8516 -27.7398 97° East  Level FlightAware Approximate
Mon 03:42:00 51.8339 -27.5081 97° East  Level FlightAware Approximate
Mon 03:43:00 51.8157 -27.2765 97° East  Level FlightAware Approximate
Mon 03:44:00 51.7971 -27.0451 97° East  Level FlightAware Approximate
Mon 03:45:00 51.7780 -26.8139 98° East  Level FlightAware Approximate
Mon 03:46:00 51.7585 -26.5829 98° East  Level FlightAware Approximate
Mon 03:47:00 51.7385 -26.3521 98° East  Level FlightAware Approximate
Mon 03:48:00 51.7180 -26.1215 98° East  Level FlightAware Approximate
Mon 03:49:00 51.6971 -25.8912 98° East  Level FlightAware Approximate
Mon 03:50:00 51.6758 -25.6610 98° East  Level FlightAware Approximate
Mon 03:51:00 51.6540 -25.4311 99° East  Level FlightAware Approximate
Mon 03:52:00 51.6318 -25.2014 99° East  Level FlightAware Approximate
Mon 03:53:00 51.6091 -24.9719 99° East  Level FlightAware Approximate
Mon 03:54:00 51.5859 -24.7427 99° East  Level FlightAware Approximate
Mon 03:55:00 51.5624 -24.5136 99° East  Level FlightAware Approximate
Mon 03:56:00 51.5383 -24.2849 99° East  Level FlightAware Approximate
Mon 03:57:00 51.5139 -24.0563 100° East  Level FlightAware Approximate
Mon 03:58:00 51.4889 -23.8280 100° East  Level FlightAware Approximate
Mon 03:59:00 51.4636 -23.6000 100° East  Level FlightAware Approximate
Mon 04:00:00 51.4378 -23.3722 100° East  Level FlightAware Approximate
Mon 04:01:00 51.4115 -23.1447 100° East  Level FlightAware Approximate
Mon 04:02:00 51.3848 -22.9174 101° East  Level FlightAware Approximate
Mon 04:03:00 51.3577 -22.6905 101° East  Level FlightAware Approximate
Mon 04:04:00 51.3302 -22.4637 101° East  Level FlightAware Approximate
Mon 04:05:00 51.3022 -22.2373 101° East  Level FlightAware Approximate
Mon 04:06:00 51.2737 -22.0111 101° East  Level FlightAware Approximate
Mon 04:07:00 51.2449 -21.7852 101° East  Level FlightAware Approximate
Mon 04:08:00 51.2156 -21.5597 102° East  Level FlightAware Approximate
Mon 04:09:00 51.1858 -21.3343 102° East  Level FlightAware Approximate
Mon 04:10:00 51.1557 -21.1093 102° East  Level FlightAware Approximate
Mon 04:11:00 51.1251 -20.8846 102° East  Level FlightAware Approximate
Mon 04:12:00 51.0940 -20.6602 102° East  Level FlightAware Approximate
Mon 04:13:00 51.0626 -20.4361 103° East  Level FlightAware Approximate
Mon 04:14:00 51.0307 -20.2122 103° East  Level FlightAware Approximate
Mon 04:15:00 50.9987 -19.9886 100° East  Level FlightAware Approximate
Mon 04:16:00 50.9738 -19.7629 100° East  Level FlightAware Approximate
Mon 04:17:00 50.9484 -19.5374 100° East  Level FlightAware Approximate
Mon 04:18:00 50.9226 -19.3122 100° East  Level FlightAware Approximate
Mon 04:19:00 50.8963 -19.0872 100° East  Level FlightAware Approximate
Mon 04:20:00 50.8696 -18.8624 101° East  Level FlightAware Approximate
Mon 04:21:00 50.8425 -18.6380 101° East  Level FlightAware Approximate
Mon 04:22:00 50.8149 -18.4138 101° East  Level FlightAware Approximate
Mon 04:23:00 50.7869 -18.1898 101° East  Level FlightAware Approximate
Mon 04:24:00 50.7585 -17.9662 101° East  Level FlightAware Approximate
Mon 04:25:00 50.7296 -17.7428 101° East  Level FlightAware Approximate
Mon 04:26:00 50.7004 -17.5196 102° East  Level FlightAware Approximate
Mon 04:27:00 50.6707 -17.2968 102° East  Level FlightAware Approximate
Mon 04:28:00 50.6406 -17.0742 102° East  Level FlightAware Approximate
Mon 04:29:00 50.6099 -16.8520 102° East  Level FlightAware Approximate
Mon 04:30:00 50.5785 -16.6302 102° East  Level FlightAware Approximate
Mon 04:31:00 50.5467 -16.4087 103° East  Level FlightAware Approximate
Mon 04:32:00 50.5144 -16.1875 103° East  Level FlightAware Approximate
Mon 04:33:00 50.4818 -15.9665 103° East  Level FlightAware Approximate
Mon 04:34:00 50.4487 -15.7459 103° East  Level FlightAware Approximate
Mon 04:35:00 50.4152 -15.5256 103° East  Level FlightAware Approximate
Mon 04:36:00 50.3812 -15.3056 104° East  Level FlightAware Approximate
Mon 04:37:00 50.3469 -15.0860 104° East  Level FlightAware Approximate
Mon 04:38:00 50.3121 -14.8666 104° East  Level FlightAware Approximate
Mon 04:39:00 50.2768 -14.6476 104° East  Level FlightAware Approximate
Mon 04:40:00 50.2412 -14.4290 104° East  Level FlightAware Approximate
Mon 04:41:00 50.2051 -14.2106 104° East  Level FlightAware Approximate
Mon 04:42:00 50.1686 -13.9926 105° East  Level FlightAware Approximate
Mon 04:43:00 50.1317 -13.7750 105° East  Level FlightAware Approximate
Mon 04:43:15 50.2200 -10.9160 105° East 580 667 35,000  Level FlightAware ADS-B
Mon 04:43:55 50.1820 -10.7590 111° Southeast 579 666 35,000  Level FlightAware ADS-B
Mon 04:44:00 50.0944 -13.5576 105° East  Level FlightAware Approximate
Mon 04:44:35 50.1450 -10.6030 110° East 579 666 35,000  Level FlightAware ADS-B
Mon 04:45:19 50.1030 -10.4320 111° Southeast 578 665 35,000  Level FlightAware ADS-B
Mon 04:46:04 50.0600 -10.2580 111° Southeast 578 665 35,000  Level FlightAware ADS-B
Mon 04:46:42 50.0230 -10.1110 111° Southeast 575 662 35,000  Level FlightAware ADS-B
Mon 04:47:28 49.9800 -9.9340 111° Southeast 574 661 35,000  Level FlightAware ADS-B
Mon 04:48:08 49.9410 -9.7810 112° Southeast 570 656 35,000  Level FlightAware ADS-B
Mon 04:48:52 49.8980 -9.6140 112° Southeast 570 656 35,000  Level FlightAware ADS-B
Mon 04:49:32 49.8590 -9.4590 111° Southeast 568 654 35,000  Level FlightAware ADS-B
Mon 04:50:12 49.8200 -9.3080 112° Southeast 566 651 35,000  Level FlightAware ADS-B
Mon 04:50:56 49.7780 -9.1470 112° Southeast 562 647 35,000  Level FlightAware ADS-B
Mon 04:51:33 49.7405 -9.0039 112° Southeast 480 552 35,000  Level FlightAware UK
Mon 04:51:37 49.7390 -8.9950 112° Southeast 557 641 35,000  Level FlightAware ADS-B
Mon 04:51:57 49.7174 -8.9154 112° Southeast 480 552 35,000  Level FlightAware UK
Mon 04:52:15 49.7000 -8.8490 112° Southeast 484 557 35,000  Level FlightAware UK
Mon 04:52:21 49.6970 -8.8370 112° Southeast 558 642 35,000  Level FlightAware ADS-B
Mon 04:52:39 49.6767 -8.7605 112° Southeast 482 555 35,000  Level FlightAware UK
Mon 04:52:57 49.6593 -8.6942 112° Southeast 478 550 35,000  Level FlightAware UK
Mon 04:53:01 49.6560 -8.6860 112° Southeast 558 642 35,000  Level FlightAware ADS-B
Mon 04:53:21 49.6357 -8.6059 112° Southeast 482 555 35,000  Level FlightAware UK
Mon 04:53:39 49.6180 -8.5397 112° Southeast 482 555 35,000  Level FlightAware UK
Mon 04:53:45 49.6130 -8.5240 112° Southeast 560 644 35,000  Level FlightAware ADS-B
Mon 04:54:03 49.5943 -8.4515 112° Southeast 484 557 35,000  Level FlightAware UK
Mon 04:54:21 49.5766 -8.3854 112° Southeast 480 552 35,000  Level FlightAware UK
Mon 04:54:26 49.5730 -8.3690 112° Southeast 559 643 35,000  Level FlightAware ADS-B
Mon 04:54:45 49.5529 -8.2972 112° Southeast 480 552 35,000  Level FlightAware UK
Mon 04:55:03 49.5352 -8.2309 112° Southeast 482 555 35,000  Level FlightAware UK
Mon 04:55:06 49.5330 -8.2220 112° Southeast 560 644 35,000  Level FlightAware ADS-B
Mon 04:55:21 49.5173 -8.1647 112° Southeast 482 555 35,000  Level FlightAware UK
Mon 04:55:39 49.4993 -8.0986 113° Southeast 484 557 35,000  Level FlightAware UK
Mon 04:55:50 49.4890 -8.0600 113° Southeast 561 646 35,000  Level FlightAware ADS-B
Mon 04:56:09 49.4690 -7.9878 113° Southeast 486 559 35,000  Level FlightAware UK
Mon 04:56:27 49.4508 -7.9217 113° Southeast 484 557 35,000  Level FlightAware UK
Mon 04:56:30 49.4480 -7.9140 113° Southeast 560 644 35,000  Level FlightAware ADS-B
Mon 04:56:45 49.4326 -7.8557 113° Southeast 484 557 35,000  Level FlightAware UK
Mon 04:57:03 49.4144 -7.7898 113° Southeast 484 557 35,000  Level FlightAware UK
Mon 04:57:16 49.4020 -7.7450 113° Southeast 561 646 35,000  Level FlightAware ADS-B
Mon 04:57:33 49.3843 -7.6798 113° Southeast 486 559 35,000  Level FlightAware UK
Mon 04:57:51 49.3660 -7.6139 113° Southeast 488 562 35,000  Level FlightAware UK
Mon 04:57:56 49.3620 -7.5990 113° Southeast 559 643 35,000  Level FlightAware ADS-B
Mon 04:58:15 49.3415 -7.5264 113° Southeast 488 562 35,000  Level FlightAware UK
Mon 04:58:33 49.3231 -7.4608 113° Southeast 490 564 35,000  Level FlightAware UK
Mon 04:58:40 49.3170 -7.4390 113° Southeast 556 640 35,000  Level FlightAware ADS-B
Mon 04:58:57 49.2985 -7.3737 113° Southeast 490 564 35,000  Level FlightAware UK
Mon 04:59:15 49.2801 -7.3087 113° Southeast 490 564 35,000  Level FlightAware UK
Mon 04:59:20 49.2780 -7.3020 113° Southeast 555 639 35,000  Level FlightAware ADS-B
Mon 04:59:39 49.2559 -7.2220 113° Southeast 488 562 35,000  Level FlightAware UK
Mon 04:59:57 49.2376 -7.1574 113° Southeast 486 559 35,000  Level FlightAware UK
Mon 05:00:02 49.2340 -7.1440 113° Southeast 552 635 35,000  Level FlightAware ADS-B
Mon 05:00:21 49.2133 -7.0716 113° Southeast 486 559 35,000  Level FlightAware UK
Mon 05:00:39 49.1951 -7.0074 113° Southeast 486 559 35,000  Level FlightAware UK
Mon 05:00:42 49.1950 -7.0000 113° Southeast 552 635 35,000  Level FlightAware ADS-B
Mon 05:00:57 49.1862 -6.9397 113° Southeast 486 559 35,000  Level FlightAware UK
Mon 05:01:16 49.1779 -6.8705 100° East 484 557 35,000  Level FlightAware UK
Mon 05:01:28 49.1720 -6.8250 100° East 547 629 35,000  Level FlightAware ADS-B
Mon 05:01:46 49.1644 -6.7566 100° East 482 555 35,000  Level FlightAware UK
Mon 05:02:04 49.1560 -6.6882 101° East 482 555 35,000  Level FlightAware UK
Mon 05:02:08 49.1540 -6.6730 101° East 547 629 35,000  Level FlightAware ADS-B
Mon 05:02:28 49.1444 -6.5972 101° East 482 555 35,000  Level FlightAware UK
Mon 05:02:46 49.1356 -6.5289 101° East 484 557 35,000  Level FlightAware UK
Mon 05:02:49 49.1350 -6.5210 101° East 547 629 35,000  Level FlightAware ADS-B
Mon 05:03:04 49.1268 -6.4606 101° East 486 559 35,000  Level FlightAware UK
Mon 05:03:22 49.1183 -6.3925 101° East 486 559 35,000  Level FlightAware UK
Mon 05:03:32 49.1140 -6.3580 101° East 546 628 35,000  Level FlightAware ADS-B
Mon 05:03:52 49.1040 -6.2789 101° East 486 559 35,000  Level FlightAware UK
Mon 05:04:10 49.0955 -6.2108 101° East 486 559 35,000  Level FlightAware UK
Mon 05:04:16 49.0930 -6.1930 101° East 545 627 35,000  Level FlightAware ADS-B
Mon 05:04:34 49.0837 -6.1203 101° East 484 557 35,000  Level FlightAware UK
Mon 05:04:52 49.0747 -6.0527 102° East 484 557 35,000  Level FlightAware UK
Mon 05:04:56 49.0730 -6.0380 102° East 544 626 35,000  Level FlightAware ADS-B
Mon 05:05:34 49.0536 -5.8952 102° East 484 557 35,000  Level FlightAware UK
Mon 05:05:36 49.0520 -5.8880 102° East 543 625 35,000  Level FlightAware ADS-B
Mon 05:05:52 49.0444 -5.8279 102° East 482 555 35,000  Level FlightAware UK
Mon 05:06:10 49.0350 -5.7600 102° East 482 555 35,000  Level FlightAware UK
Mon 05:06:21 49.0300 -5.7240 102° East 542 624 35,000  Level FlightAware ADS-B
Mon 05:06:46 49.0162 -5.6260 102° East 484 557 35,000  Level FlightAware UK
Mon 05:07:01 49.0090 -5.5750 102° East 541 623 35,000  Level FlightAware ADS-B
Mon 05:07:16 49.0001 -5.5145 102° East 484 557 35,000  Level FlightAware UK
Mon 05:07:34 48.9904 -5.4477 102° East 482 555 35,000  Level FlightAware UK
Mon 05:07:45 48.9850 -5.4120 102° East 540 621 35,000  Level FlightAware ADS-B
Mon 05:08:22 48.9641 -5.2698 102° East 486 559 35,000  Level FlightAware UK
Mon 05:08:25 48.9640 -5.2710 102° East 540 621 35,000  Level FlightAware ADS-B
Mon 05:08:40 48.9514 -5.2044 102° East 486 559 35,000  Level FlightAware UK
Mon 05:09:04 48.9290 -5.1240 102° East 543 625 35,000  Level FlightAware ADS-B
Mon 05:09:22 48.9057 -5.0600 102° East 486 559 35,000  Level FlightAware UK
Mon 05:09:40 48.8797 -5.0036 125° Southeast 484 557 35,000  Level FlightAware UK
Mon 05:09:49 48.8660 -4.9770 125° Southeast 544 626 35,000  Level FlightAware ADS-B
Mon 05:10:33 48.8010 -4.8450 127° Southeast 542 624 35,000  Level FlightAware ADS-B
Mon 05:11:10 48.7443 -4.7288 127° Southeast 488 562 35,000  Level FlightAware UK
Mon 05:11:15 48.7370 -4.7150 127° Southeast 540 621 35,000  Level FlightAware ADS-B
Mon 05:11:34 48.7080 -4.6566 127° Southeast 486 559 35,000  Level FlightAware UK
Mon 05:11:52 48.6808 -4.6024 127° Southeast 486 559 35,000  Level FlightAware UK
Mon 05:11:59 48.6700 -4.5830 127° Southeast 539 620 35,000  Level FlightAware ADS-B
Mon 05:12:16 48.6447 -4.5305 127° Southeast 486 559 35,000  Level FlightAware UK
Mon 05:12:34 48.6177 -4.4767 127° Southeast 484 557 35,000  Level FlightAware UK
Mon 05:12:37 48.6140 -4.4700 127° Southeast 537 618 35,000  Level FlightAware ADS-B
Mon 05:12:52 48.5907 -4.4230 127° Southeast 484 557 35,000  Level FlightAware UK
Mon 05:13:10 48.5638 -4.3692 127° Southeast 486 559 35,000  Level FlightAware UK
Mon 05:13:21 48.5480 -4.3390 127° Southeast 534 615 35,000  Level FlightAware ADS-B
Mon 05:13:40 48.5189 -4.2803 127° Southeast 490 564 35,000  Level FlightAware UK
Mon 05:14:01 48.4880 -4.2210 127° Southeast 530 610 35,000  Level FlightAware ADS-B
Mon 05:14:16 48.4651 -4.1742 127° Southeast 492 566 35,000  Level FlightAware UK
Mon 05:14:34 48.4384 -4.1217 127° Southeast 496 571 35,000  Level FlightAware UK
Mon 05:14:44 48.4240 -4.0950 127° Southeast 527 606 35,000  Level FlightAware ADS-B
Mon 05:15:10 48.3852 -4.0175 127° Southeast 492 566 35,000  Level FlightAware UK
Mon 05:15:25 48.3650 -3.9790 127° Southeast 526 605 35,000  Level FlightAware ADS-B
Mon 05:15:46 48.3326 -3.9132 127° Southeast 492 566 35,000  Level FlightAware UK
Mon 05:16:05 48.3070 -3.8610 127° Southeast 524 603 35,000  Level FlightAware ADS-B
Mon 05:16:51 48.2410 -3.7240 126° Southeast 522 601 35,000  Level FlightAware ADS-B
Mon 05:17:31 48.1840 -3.6080 126° Southeast 519 597 35,000  Level FlightAware ADS-B
Mon 05:18:15 48.1220 -3.4840 127° Southeast 516 594 35,000  Level FlightAware ADS-B
Mon 05:18:55 48.0620 -3.3690 128° Southeast 515 593 35,000  Level FlightAware ADS-B
Mon 05:19:39 47.9930 -3.2510 131° Southeast 514 592 35,000  Level FlightAware ADS-B
Mon 05:20:19 47.9310 -3.1430 131° Southeast 512 589 35,000  Level FlightAware ADS-B
Mon 05:21:03 47.8650 -3.0280 131° Southeast 511 588 35,000  Level FlightAware ADS-B
Mon 05:21:43 47.8040 -2.9210 130° Southeast 511 588 35,000  Level FlightAware ADS-B
Mon 05:22:27 47.7360 -2.8050 131° Southeast 511 588 35,000  Level FlightAware ADS-B
Mon 05:23:07 47.6730 -2.6990 131° Southeast 510 587 35,000  Level FlightAware ADS-B
Mon 05:23:49 47.6070 -2.5860 131° Southeast 509 586 35,000  Level FlightAware ADS-B
Mon 05:24:33 47.5390 -2.4710 131° Southeast 508 585 35,000  Level FlightAware ADS-B
Mon 05:25:13 47.4780 -2.3670 131° Southeast 507 583 35,000  Level FlightAware ADS-B
Mon 05:25:57 47.4100 -2.2530 131° Southeast 507 583 35,000  Level FlightAware ADS-B
Mon 05:26:35 47.3500 -2.1540 132° Southeast 507 583 35,000  Level FlightAware ADS-B
Mon 05:27:21 47.2780 -2.0350 132° Southeast 506 582 35,000  Level FlightAware ADS-B
Mon 05:28:01 47.2170 -1.9350 132° Southeast 505 581 35,000  Level FlightAware ADS-B
Mon 05:28:46 47.1470 -1.8200 132° Southeast 506 582 35,000  Level FlightAware ADS-B
Mon 05:29:26 47.0850 -1.7170 131° Southeast 508 585 35,000  Level FlightAware ADS-B
Mon 05:30:06 47.0220 -1.6150 132° Southeast 509 586 35,000  Level FlightAware ADS-B
Mon 05:30:52 46.9480 -1.4940 132° Southeast 511 588 35,000  Level FlightAware ADS-B
Mon 05:31:32 46.8860 -1.3910 131° Southeast 513 590 35,000  Level FlightAware ADS-B
Mon 05:32:16 46.8170 -1.2800 132° Southeast 514 592 35,000  Level FlightAware ADS-B
Mon 05:32:56 46.7520 -1.1770 133° Southeast 514 592 35,000  Level FlightAware ADS-B
Mon 05:33:38 46.6870 -1.0720 132° Southeast 514 592 35,000  Level FlightAware ADS-B
Mon 05:34:22 46.6150 -0.9570 132° Southeast 513 590 35,000  Level FlightAware ADS-B
Mon 05:35:12 46.5340 -0.8270 132° Southeast 513 590 35,000  Level FlightAware ADS-B
Mon 05:35:51 46.4810 -0.7420 132° Southeast 513 590 35,000  Level FlightAware ADS-B
Mon 05:36:34 46.4140 -0.6180 128° Southeast 507 583 35,000  Level FlightAware ADS-B
Mon 05:37:20 46.3690 -0.4830 116° Southeast 497 572 35,000  Level FlightAware ADS-B
Mon 05:37:45 46.3490 -0.3950 108° East 492 566 35,000  Level FlightAware ADS-B
Mon 05:38:30 46.3180 -0.2630 109° East 495 570 35,000  Level FlightAware ADS-B
Mon 05:39:15 46.2880 -0.1370 109° East 494 568 35,000  Level FlightAware ADS-B
Mon 05:39:50 46.2540 -0.0140 112° Southeast 499 574 35,000  Level FlightAware ADS-B
Mon 05:40:41 46.2190 0.1220 110° East 499 574 35,000  Level FlightAware ADS-B
Mon 05:41:20 46.1810 0.2770 109° East 499 574 35,000  Level FlightAware ADS-B
Mon 05:42:00 46.1510 0.3990 110° East 497 572 35,000  Level FlightAware ADS-B
Mon 05:43:10 46.0960 0.6180 110° East 496 571 35,000  Level FlightAware ADS-B
Mon 05:43:50 46.0710 0.7250 109° East 496 571 35,000  Level FlightAware ADS-B
Mon 05:44:39 46.0420 0.8560 108° East 496 571 35,000  Level FlightAware ADS-B
Mon 05:45:15 46.0200 0.9520 108° East 496 571 35,000  Level FlightAware ADS-B
Mon 05:46:03 45.9910 1.0810 108° East 496 571 35,000  Level FlightAware ADS-B
Mon 05:46:39 45.9690 1.1770 108° East 496 571 35,000  Level FlightAware ADS-B
Mon 05:47:27 45.8960 1.4040 115° Southeast 494 568 35,000  Level FlightAware ADS-B
Mon 05:48:03 45.8720 1.4980 110° East 494 568 35,000  Level FlightAware ADS-B
Mon 05:48:50 45.8260 1.6710 111° Southeast 489 563 35,000  Level FlightAware ADS-B
Mon 05:49:30 45.7950 1.7900 110° East 489 563 35,000  Level FlightAware ADS-B
Mon 05:50:14 45.7600 1.9230 111° Southeast 490 564 35,000  Level FlightAware ADS-B
Mon 05:50:55 45.7260 2.0510 111° Southeast 491 565 35,000  Level FlightAware ADS-B
Mon 05:51:38 45.6920 2.1780 111° Southeast 490 564 35,000  Level FlightAware ADS-B
Mon 05:52:19 45.6580 2.3050 111° Southeast 491 565 35,000  Level FlightAware ADS-B
Mon 05:53:02 45.6230 2.4320 111° Southeast 491 565 35,000  Level FlightAware ADS-B
Mon 05:53:42 45.5910 2.5530 111° Southeast 491 565 35,000  Level FlightAware ADS-B
Mon 05:54:27 45.5530 2.6920 111° Southeast 492 566 35,000  Level FlightAware ADS-B
Mon 05:55:13 45.5190 2.8160 111° Southeast 492 566 35,000  Level FlightAware ADS-B
Mon 05:56:02 45.4850 2.9420 111° Southeast 492 566 35,000  Level FlightAware ADS-B
Mon 05:56:48 45.4540 3.0610 110° East 492 566 35,000  Level FlightAware ADS-B
Mon 05:57:24 45.4290 3.1530 111° Southeast 492 566 35,000  Level FlightAware ADS-B
Mon 05:58:22 45.3580 3.3930 113° Southeast 35,000  Level FlightAware ADS-B
Mon 05:59:07 45.3190 3.5340 111° Southeast 490 564 35,000  Level FlightAware ADS-B
Mon 05:59:46 45.2840 3.6540 112° Southeast 493 567 35,000  Level FlightAware ADS-B
Mon 06:00:37 45.2490 3.7910 110° East 498 573 35,000  Level FlightAware ADS-B
Mon 06:01:23 45.2170 3.9440 106° East 502 578 35,000  Level FlightAware ADS-B
Mon 06:02:04 45.1830 4.0800 109° East 496 571 35,000  Level FlightAware ADS-B
Mon 06:02:44 45.1500 4.1800 115° Southeast 496 571 35,000  Level FlightAware ADS-B
Mon 06:03:27 45.0840 4.3010 128° Southeast 491 565 35,000  Level FlightAware ADS-B
Mon 06:04:07 45.0380 4.4130 120° Southeast 489 563 35,000  Level FlightAware ADS-B
Mon 06:04:52 44.9810 4.5370 123° Southeast 487 560 35,000  Level FlightAware ADS-B
Mon 06:05:32 44.9330 4.6450 122° Southeast 486 559 35,000  Level FlightAware ADS-B
Mon 06:06:17 44.8830 4.7560 122° Southeast 487 560 35,000  Level FlightAware ADS-B
Mon 06:07:02 44.8260 4.8840 122° Southeast 485 558 35,000  Level FlightAware ADS-B
Mon 06:07:37 44.7830 4.9800 122° Southeast 484 557 35,000  Level FlightAware ADS-B
Mon 06:08:22 44.7300 5.0940 123° Southeast 483 556 35,000  Level FlightAware ADS-B
Mon 06:09:07 44.6760 5.2150 122° Southeast 483 556 35,000  Level FlightAware ADS-B
Mon 06:09:47 44.6260 5.3240 123° Southeast 484 557 35,000  Level FlightAware ADS-B
Mon 06:10:27 44.5760 5.4320 123° Southeast 484 557 35,000  Level FlightAware ADS-B
Mon 06:10:52 44.5470 5.4950 123° Southeast 480 552 35,000  Level FlightAware ADS-B
Mon 06:11:32 44.4990 5.5970 123° Southeast 480 552 35,000  Level FlightAware ADS-B
Mon 06:12:12 44.4490 5.7050 123° Southeast 480 552 35,000  Level FlightAware ADS-B
Mon 06:12:57 44.3940 5.8230 123° Southeast 480 552 35,000  Level FlightAware ADS-B
Mon 06:13:37 44.3450 5.9280 123° Southeast 481 554 35,000  Level FlightAware ADS-B
Mon 06:14:37 44.2730 6.0820 123° Southeast 482 555 35,000  Level FlightAware ADS-B
Mon 06:15:17 44.2240 6.1850 124° Southeast 483 556 35,000  Level FlightAware ADS-B
Mon 06:16:00 44.1660 6.3080 123° Southeast 490 564 35,000  Level FlightAware ADS-B
Mon 06:17:10 44.0780 6.4900 124° Southeast 493 567 35,000  Level FlightAware ADS-B
Mon 06:17:50 44.0310 6.5900 123° Southeast 494 568 35,000  Level FlightAware ADS-B
Mon 06:18:32 43.9770 6.7010 124° Southeast 495 570 35,000  Level FlightAware ADS-B
Mon 06:19:12 43.9260 6.8060 124° Southeast 498 573 35,000  Level FlightAware ADS-B
Mon 06:19:57 43.8650 6.9310 124° Southeast 502 578 35,000  Level FlightAware ADS-B
Mon 06:20:37 43.8130 7.0380 124° Southeast 505 581 35,000  Level FlightAware ADS-B
Mon 06:21:22 43.7540 7.1590 124° Southeast 508 585 35,000  Level FlightAware ADS-B
Mon 06:22:02 43.7040 7.2610 124° Southeast 509 586 35,000  Level FlightAware ADS-B
Mon 06:22:42 43.6480 7.3740 124° Southeast 510 587 35,000  Level FlightAware ADS-B
Mon 06:23:27 43.5880 7.4950 124° Southeast 511 588 35,000  Level FlightAware ADS-B
Mon 06:24:07 43.5380 7.5950 125° Southeast 514 592 35,000  Level FlightAware ADS-B
Mon 06:24:52 43.4760 7.7220 124° Southeast 515 593 35,000  Level FlightAware ADS-B
Mon 06:25:29 43.4240 7.8240 125° Southeast 517 595 35,000  Level FlightAware ADS-B
Mon 06:26:14 43.3630 7.9460 124° Southeast 518 596 35,000  Level FlightAware ADS-B
Mon 06:26:58 43.3020 8.0660 125° Southeast 522 601 35,000  Level FlightAware ADS-B
Mon 06:27:40 43.2460 8.1770 125° Southeast 523 602 35,000  Level FlightAware ADS-B
Mon 06:28:20 43.1880 8.2920 125° Southeast 525 604 35,000  Level FlightAware ADS-B
Mon 06:29:06 43.1240 8.4180 125° Southeast 527 606 35,000  Level FlightAware ADS-B
Mon 06:29:44 43.0700 8.5220 125° Southeast 530 610 35,000  Level FlightAware ADS-B
Mon 06:30:29 43.0080 8.6430 125° Southeast 532 612 35,000  Level FlightAware ADS-B
Mon 06:31:11 42.9530 8.7590 123° Southeast 544 626 35,000  Level FlightAware ADS-B
Mon 06:31:51 42.9090 8.8840 116° Southeast 549 632 35,000  Level FlightAware ADS-B
Mon 06:32:33 42.8640 9.0120 116° Southeast 550 633 35,000  Level FlightAware ADS-B
Mon 06:33:13 42.8180 9.1390 116° Southeast 551 634 35,000  Level FlightAware ADS-B
Mon 06:33:58 42.7660 9.2850 116° Southeast 550 633 35,000  Level FlightAware ADS-B
Mon 06:34:38 42.7210 9.4100 116° Southeast 551 634 35,000  Level FlightAware ADS-B
Mon 06:35:24 42.6680 9.5520 117° Southeast 553 636 35,000  Level FlightAware ADS-B
Mon 06:36:02 42.6240 9.6700 117° Southeast 552 635 35,000  Level FlightAware ADS-B
Mon 06:36:46 42.5740 9.8060 116° Southeast 552 635 35,000  Level FlightAware ADS-B
Mon 06:37:27 42.5270 9.9300 117° Southeast 552 635 35,000  Level FlightAware ADS-B
Mon 06:38:11 42.4710 10.0610 120° Southeast 545 627 35,000  Level FlightAware ADS-B
Mon 06:38:50 42.4150 10.1710 125° Southeast 546 628 35,000  Level FlightAware ADS-B
Mon 06:39:32 42.3570 10.2860 124° Southeast 547 629 35,000  Level FlightAware ADS-B
Mon 06:40:16 42.2930 10.4140 124° Southeast 543 625 35,000  Level FlightAware ADS-B
Mon 06:40:57 42.2350 10.5260 125° Southeast 542 624 35,000  Level FlightAware ADS-B
Mon 06:41:37 42.1750 10.6390 126° Southeast 542 624 35,000  Level FlightAware ADS-B
Mon 06:42:22 42.1090 10.7650 125° Southeast 544 626 35,000  Level FlightAware ADS-B
Mon 06:43:02 42.0510 10.8740 126° Southeast 545 627 35,000  Level FlightAware ADS-B
Mon 06:43:42 41.9920 10.9850 126° Southeast 545 627 35,000  Level FlightAware ADS-B
Mon 06:44:27 41.9250 11.1130 125° Southeast 550 633 35,000  Level FlightAware ADS-B
Mon 06:45:08 41.8660 11.2240 125° Southeast 550 633 35,000  Level FlightAware ADS-B
Mon 06:45:52 41.7990 11.3490 126° Southeast 550 633 35,000  Level FlightAware ADS-B
Mon 06:46:32 41.7390 11.4590 126° Southeast 550 633 35,000  Level FlightAware ADS-B
Mon 06:47:12 41.6800 11.5700 125° Southeast 551 634 35,000  Level FlightAware ADS-B
Mon 06:47:58 41.6110 11.6970 126° Southeast 552 635 35,000  Level FlightAware ADS-B
Mon 06:48:38 41.5510 11.8070 126° Southeast 552 635 35,000  Level FlightAware ADS-B
Mon 06:49:18 41.4920 11.9140 126° Southeast 554 638 35,000  Level FlightAware ADS-B
Mon 06:50:03 41.4240 12.0380 126° Southeast 552 635 35,000  Level FlightAware ADS-B
Mon 06:50:43 41.3620 12.1510 126° Southeast 550 633 35,000  Level FlightAware ADS-B
Mon 06:51:30 41.2920 12.2790 126° Southeast 553 636 35,000  Level FlightAware ADS-B
Mon 06:52:10 41.2310 12.3880 127° Southeast 555 639 35,000  Level FlightAware ADS-B
Mon 06:52:51 41.1760 12.4960 124° Southeast 559 643 35,000  Level FlightAware ADS-B
Mon 06:53:30 41.1230 12.6160 120° Southeast 559 643 35,000  Level FlightAware ADS-B
Mon 06:54:15 41.0650 12.7490 120° Southeast 559 643 35,000  Level FlightAware ADS-B
Mon 06:54:55 41.0120 12.8670 121° Southeast 558 642 35,000  Level FlightAware ADS-B
Mon 06:55:35 40.9610 12.9810 121° Southeast 557 641 35,000  Level FlightAware ADS-B
Mon 06:56:20 40.9010 13.1160 120° Southeast 557 641 35,000  Level FlightAware ADS-B
Mon 06:57:00 40.8500 13.2290 121° Southeast 555 639 35,000  Level FlightAware ADS-B
Mon 06:57:45 40.7880 13.3650 121° Southeast 554 638 35,000  Level FlightAware ADS-B
Mon 06:58:25 40.7370 13.4770 121° Southeast 552 635 35,000 279 Level FlightAware ADS-B
Mon 06:59:11 40.6730 13.6160 121° Southeast 556 640 35,400 1,143 Climbing FlightAware ADS-B
Mon 06:59:49 40.6230 13.7250 121° Southeast 547 629 36,600 1,143 Climbing FlightAware ADS-B
Mon 07:00:35 40.5660 13.8490 121° Southeast 537 618 37,000 279 Climbing FlightAware ADS-B
Mon 07:01:15 40.5130 13.9660 121° Southeast 535 616 37,000  Level FlightAware ADS-B
Mon 07:01:57 40.4590 14.0820 121° Southeast 535 616 37,000  Level FlightAware ADS-B
Mon 07:02:41 40.4030 14.2020 121° Southeast 535 616 37,000  Level FlightAware ADS-B
Mon 07:03:21 40.3510 14.3120 122° Southeast 535 616 37,000  Level FlightAware ADS-B
Mon 07:04:03 40.2960 14.4310 121° Southeast 536 617 37,000  Level FlightAware ADS-B
Mon 07:04:47 40.2390 14.5530 121° Southeast 535 616 37,000  Level FlightAware ADS-B
Mon 07:05:27 40.1900 14.6550 122° Southeast 536 617 37,000  Level FlightAware ADS-B
Mon 07:06:11 40.1290 14.7840 122° Southeast 536 617 37,000  Level FlightAware ADS-B
Mon 07:06:51 40.0770 14.8920 122° Southeast 535 616 37,000  Level FlightAware ADS-B
Mon 07:07:35 40.0200 15.0120 122° Southeast 535 616 37,000  Level FlightAware ADS-B
Mon 07:08:15 39.9660 15.1250 122° Southeast 537 618 37,000  Level FlightAware ADS-B
Mon 07:08:55 39.9140 15.2340 122° Southeast 538 619 37,000  Level FlightAware ADS-B
Mon 07:09:41 39.8530 15.3580 123° Southeast 538 619 37,000  Level FlightAware ADS-B
Mon 07:10:21 39.8000 15.4670 122° Southeast 538 619 37,000  Level FlightAware ADS-B
Mon 07:11:05 39.7420 15.5880 122° Southeast 540 621 37,000 222 Level FlightAware ADS-B
Mon 07:11:42 39.6920 15.6890 123° Southeast 542 624 37,300 500 Climbing FlightAware ADS-B
Mon 07:12:29 39.6300 15.8160 122° Southeast 549 632 37,700 767 Climbing FlightAware ADS-B
Mon 07:13:08 39.5750 15.9300 122° Southeast 548 631 38,400 795 Climbing FlightAware ADS-B
Mon 07:13:52 39.5150 16.0490 123° Southeast 551 634 38,800 429 Climbing FlightAware ADS-B
Mon 07:14:32 39.4610 16.1610 122° Southeast 555 639 39,000 143 Climbing FlightAware ADS-B
Mon 07:15:16 39.4090 16.2890 118° Southeast 566 651 39,000  Level FlightAware ADS-B
Mon 07:15:56 39.3690 16.4170 112° Southeast 566 651 39,000  Level FlightAware ADS-B
Mon 07:16:40 39.3250 16.5580 112° Southeast 564 649 39,000  Level FlightAware ADS-B
Mon 07:17:22 39.2830 16.6850 113° Southeast 564 649 39,000  Level FlightAware ADS-B
Mon 07:18:06 39.2370 16.8240 113° Southeast 564 649 39,000  Level FlightAware ADS-B
Mon 07:18:44 39.1990 16.9420 113° Southeast 562 647 39,000  Level FlightAware ADS-B
Mon 07:19:38 39.1640 17.0530 112° Southeast 564 649 39,000  Level FlightAware ADS-B
Mon 07:20:17 39.1210 17.1860 113° Southeast 560 644 39,000  Level FlightAware ADS-B
Mon 07:21:05 39.0720 17.3380 113° Southeast 565 650 39,000  Level FlightAware ADS-B
Mon 07:21:45 39.0300 17.4650 113° Southeast 566 651 39,000  Level FlightAware ADS-B
Mon 07:22:25 38.9930 17.5770 113° Southeast 567 652 39,000  Level FlightAware ADS-B
Mon 07:23:11 38.9500 17.7100 113° Southeast 567 652 39,000  Level FlightAware ADS-B
Mon 07:23:51 38.9040 17.8500 113° Southeast 568 654 39,000  Level FlightAware ADS-B
Mon 07:24:32 38.8630 17.9740 113° Southeast 567 652 39,000  Level FlightAware ADS-B
Mon 07:25:11 38.8200 18.1040 113° Southeast 567 652 39,000  Level FlightAware ADS-B
Mon 07:26:01 38.7710 18.2520 113° Southeast 566 651 39,000  Level FlightAware ADS-B
Mon 07:26:38 38.7330 18.3650 113° Southeast 565 650 39,000  Level FlightAware ADS-B
Mon 07:27:26 38.6820 18.5190 113° Southeast 562 647 39,000  Level FlightAware ADS-B
Mon 07:28:07 38.6450 18.6250 114° Southeast 561 646 39,000  Level FlightAware ADS-B
Mon 07:28:47 38.6010 18.7590 113° Southeast 560 644 39,000  Level FlightAware ADS-B
Mon 07:29:32 38.5520 18.9010 114° Southeast 560 644 39,000  Level FlightAware ADS-B
Mon 07:30:10 38.5050 19.0480 112° Southeast 560 644 39,000  Level FlightAware ADS-B
Mon 07:30:50 38.4690 19.1720 110° East 560 644 39,000  Level FlightAware ADS-B
Mon 07:31:35 38.4290 19.3120 110° East 560 644 39,000  Level FlightAware ADS-B
Mon 07:32:15 38.3920 19.4350 111° Southeast 560 644 39,000  Level FlightAware ADS-B
Mon 07:32:59 38.3520 19.5740 110° East 558 642 39,000  Level FlightAware ADS-B
Mon 07:33:40 38.3150 19.6970 111° Southeast 558 642 39,000  Level FlightAware ADS-B
Mon 07:34:25 38.2740 19.8350 111° Southeast 558 642 39,000  Level FlightAware ADS-B
Mon 07:35:05 38.2370 19.9570 111° Southeast 554 638 39,000  Level FlightAware ADS-B
Mon 07:35:45 38.2000 20.0800 111° Southeast 555 639 39,000  Level FlightAware ADS-B
Mon 07:36:30 38.1580 20.2200 111° Southeast 555 639 39,000  Level FlightAware ADS-B
Mon 07:37:10 38.1210 20.3390 112° Southeast 555 639 39,000  Level FlightAware ADS-B
Mon 07:37:54 38.0790 20.4770 111° Southeast 556 640 39,000  Level FlightAware ADS-B
Mon 07:38:35 38.0410 20.6020 111° Southeast 557 641 39,000  Level FlightAware ADS-B
Mon 07:39:15 38.0040 20.7210 112° Southeast 558 642 39,000  Level FlightAware ADS-B
Mon 07:39:55 37.9660 20.8440 111° Southeast 559 643 39,000  Level FlightAware ADS-B
Mon 07:40:40 37.9230 20.9820 112° Southeast 560 644 39,000  Level FlightAware ADS-B
Mon 07:41:25 37.8790 21.1200 112° Southeast 564 649 39,000  Level FlightAware ADS-B
Mon 07:42:00 37.8490 21.2180 111° Southeast 564 649 39,000  Level FlightAware ADS-B
Mon 07:42:49 37.7980 21.3800 112° Southeast 565 650 39,000  Level FlightAware ADS-B
Mon 07:43:27 37.7610 21.4970 112° Southeast 566 651 39,000  Level FlightAware ADS-B
Mon 07:44:11 37.7170 21.6340 112° Southeast 566 651 39,000  Level FlightAware ADS-B
Mon 07:44:53 37.6750 21.7630 112° Southeast 568 654 39,000  Level FlightAware ADS-B
Mon 07:45:35 37.6340 21.8920 112° Southeast 568 654 39,000  Level FlightAware ADS-B
Mon 07:46:15 37.5940 22.0150 112° Southeast 568 654 39,000  Level FlightAware ADS-B
Mon 07:47:01 37.5490 22.1530 112° Southeast 568 654 39,000  Level FlightAware ADS-B
Mon 07:47:41 37.5090 22.2780 112° Southeast 568 654 39,000  Level FlightAware ADS-B
Mon 07:48:25 37.4640 22.4130 113° Southeast 568 654 39,000  Level FlightAware ADS-B
Mon 07:49:05 37.4250 22.5320 112° Southeast 568 654 39,000  Level FlightAware ADS-B
Mon 07:49:49 37.3800 22.6690 112° Southeast 567 652 39,000  Level FlightAware ADS-B
Mon 07:50:30 37.3390 22.7900 113° Southeast 567 652 39,000  Level FlightAware ADS-B
Mon 07:51:13 37.2950 22.9240 112° Southeast 567 652 39,000  Level FlightAware ADS-B
Mon 07:51:55 37.2530 23.0510 113° Southeast 567 652 39,000  Level FlightAware ADS-B
Mon 07:52:35 37.2140 23.1660 113° Southeast 566 651 39,000  Level FlightAware ADS-B
Mon 07:53:19 37.1670 23.3050 113° Southeast 565 650 39,000  Level FlightAware ADS-B
Mon 07:53:59 37.1270 23.4230 113° Southeast 566 651 39,000  Level FlightAware ADS-B
Mon 07:54:43 37.0820 23.5550 113° Southeast 565 650 39,000  Level FlightAware ADS-B
Mon 07:55:25 37.0380 23.6850 113° Southeast 567 652 39,000  Level FlightAware ADS-B
Mon 07:56:09 36.9930 23.8140 114° Southeast 568 654 39,000  Level FlightAware ADS-B
Mon 07:56:47 36.9530 23.9320 113° Southeast 567 652 39,000  Level FlightAware ADS-B
Mon 07:57:33 36.9040 24.0700 114° Southeast 567 652 39,000  Level FlightAware ADS-B
Mon 07:58:13 36.8640 24.1870 113° Southeast 570 656 39,000  Level FlightAware ADS-B
Mon 07:58:57 36.8170 24.3230 113° Southeast 570 656 39,000  Level FlightAware ADS-B
Mon 07:59:37 36.7740 24.4440 114° Southeast 572 658 39,000  Level FlightAware ADS-B
Mon 08:00:17 36.7310 24.5650 114° Southeast 574 661 39,000  Level FlightAware ADS-B
Mon 08:01:01 36.6840 24.6940 114° Southeast 574 661 39,000  Level FlightAware ADS-B
Mon 08:01:42 36.6380 24.8210 114° Southeast 574 661 39,000  Level FlightAware ADS-B
Mon 08:02:26 36.5900 24.9530 114° Southeast 574 661 39,000  Level FlightAware ADS-B
Mon 08:03:06 36.5460 25.0700 115° Southeast 574 661 39,000  Level FlightAware ADS-B
Mon 08:03:48 36.5000 25.1990 114° Southeast 575 662 39,000  Level FlightAware ADS-B
Mon 08:04:32 36.4510 25.3280 115° Southeast 575 662 39,000  Level FlightAware ADS-B
Mon 08:05:14 36.4050 25.4540 114° Southeast 575 662 39,000  Level FlightAware ADS-B
Mon 08:05:54 36.3590 25.5770 115° Southeast 574 661 39,000  Level FlightAware ADS-B
Mon 08:06:38 36.3130 25.7020 115° Southeast 574 661 39,000  Level FlightAware ADS-B
Mon 08:07:16 36.2680 25.8180 116° Southeast 573 659 39,000  Level FlightAware ADS-B
Mon 08:08:08 36.2170 25.9580 114° Southeast 573 659 39,000  Level FlightAware ADS-B
Mon 08:09:35 36.1130 26.2300 115° Southeast 572 658 39,000  Level FlightAware ADS-B
Mon 08:10:30 36.0540 26.3820 116° Southeast 571 657 39,000  Level FlightAware ADS-B
Mon 08:11:45 35.9830 26.5710 115° Southeast 571 657 39,000  Level FlightAware ADS-B
Mon 08:12:21 35.9490 26.6610 115° Southeast 571 657 39,000  Level FlightAware ADS-B
Mon 08:13:09 35.9030 26.7820 115° Southeast 571 657 39,000  Level FlightAware ADS-B
Mon 08:13:51 35.8220 26.9820 116° Southeast 574 661 39,000  Level FlightAware ADS-B
Mon 08:14:47 35.7620 27.1360 116° Southeast 576 663 39,000  Level FlightAware ADS-B
Mon 08:15:43 35.6980 27.3010 115° Southeast 574 661 39,000  Level FlightAware ADS-B
Mon 08:16:26 35.6400 27.4450 116° Southeast 575 662 39,000  Level FlightAware ADS-B
Mon 08:17:06 35.5940 27.5600 116° Southeast 574 661 39,000  Level FlightAware ADS-B
Mon 08:17:43 35.5580 27.6510 116° Southeast 574 661 39,000  Level FlightAware ADS-B
Mon 08:18:31 35.5130 27.7720 115° Southeast 574 661 39,000  Level FlightAware ADS-B
Mon 08:19:07 35.4780 27.8620 116° Southeast 574 661 39,000  Level FlightAware ADS-B
Mon 08:20:06 35.3800 28.0930 117° Southeast 580 667 39,000  Level FlightAware ADS-B
Mon 08:20:50 35.3270 28.2220 117° Southeast 580 667 39,000  Level FlightAware ADS-B
Mon 08:21:30 35.2800 28.3400 116° Southeast 581 669 39,000  Level FlightAware ADS-B
Mon 08:22:16 35.2250 28.4720 117° Southeast 581 669 39,000  Level FlightAware ADS-B
Mon 08:22:54 35.1790 28.5840 117° Southeast 581 669 39,000  Level FlightAware ADS-B
Mon 08:23:50 35.1130 28.7440 117° Southeast 580 667 39,000  Level FlightAware ADS-B
Mon 08:24:35 35.0630 28.8640 117° Southeast 580 667 39,000  Level FlightAware ADS-B
Mon 08:25:15 35.0130 28.9840 117° Southeast 578 665 39,000  Level FlightAware ADS-B
Mon 08:25:55 34.9660 29.0970 117° Southeast 578 665 39,000  Level FlightAware ADS-B
Mon 08:26:38 34.9070 29.2390 117° Southeast 578 665 39,000  Level FlightAware ADS-B
Mon 08:27:21 34.8560 29.3570 118° Southeast 573 659 39,000  Level FlightAware ADS-B
Mon 08:28:06 34.8000 29.4900 117° Southeast 577 664 39,000  Level FlightAware ADS-B
Mon 08:28:47 34.7520 29.6060 117° Southeast 573 659 39,000  Level FlightAware ADS-B
Mon 08:29:27 34.7030 29.7200 118° Southeast 572 658 39,000  Level FlightAware ADS-B
Mon 08:30:22 34.6410 29.8670 117° Southeast 572 658 39,000  Level FlightAware ADS-B
Mon 08:31:02 34.6010 29.9650 116° Southeast 572 658 39,000  Level FlightAware ADS-B
Mon 08:31:47 34.5280 30.1180 120° Southeast 571 657 39,000  Level FlightAware ADS-B
Mon 08:32:33 34.4680 30.2390 121° Southeast 570 656 39,000  Level FlightAware ADS-B
Mon 08:33:08 34.4190 30.3400 120° Southeast 568 654 39,000  Level FlightAware ADS-B
Mon 08:33:54 34.3570 30.4660 121° Southeast 569 655 39,000  Level FlightAware ADS-B
Mon 08:34:34 34.3030 30.5790 120° Southeast 568 654 39,000  Level FlightAware ADS-B
Mon 08:35:20 34.2440 30.6990 121° Southeast 569 655 39,000  Level FlightAware ADS-B
Mon 08:36:00 34.1930 30.8030 121° Southeast 570 656 39,000  Level FlightAware ADS-B
Mon 08:36:40 34.1350 30.9240 120° Southeast 570 656 39,000  Level FlightAware ADS-B
Mon 08:37:26 34.0740 31.0470 121° Southeast 571 657 39,000  Level FlightAware ADS-B
Mon 08:38:06 34.0190 31.1590 121° Southeast 570 656 39,000  Level FlightAware ADS-B
Mon 08:38:51 33.9590 31.2790 121° Southeast 569 655 39,000  Level FlightAware ADS-B
Mon 08:39:30 33.9080 31.3830 121° Southeast 569 655 39,000  Level FlightAware ADS-B
Mon 08:40:11 33.8500 31.4970 121° Southeast 568 654 39,000  Level FlightAware ADS-B
Mon 08:40:51 33.7980 31.6020 121° Southeast 567 652 39,000  Level FlightAware ADS-B
Mon 08:41:35 33.7350 31.7270 121° Southeast 568 654 39,000  Level FlightAware ADS-B
Mon 08:42:16 33.6820 31.8320 121° Southeast 567 652 39,000  Level FlightAware ADS-B
Mon 08:43:01 33.6200 31.9550 121° Southeast 567 652 39,000  Level FlightAware ADS-B
Mon 08:43:37 33.5770 32.0410 121° Southeast 567 652 39,000  Level FlightAware ADS-B
Mon 08:44:22 33.5100 32.1730 121° Southeast 562 647 39,000  Level FlightAware ADS-B
Mon 08:45:07 33.4490 32.2930 121° Southeast 562 647 39,000 -488 Level FlightAware ADS-B
Mon 08:45:48 33.3970 32.3950 121° Southeast 561 646 38,300 -1,463 Descending FlightAware ADS-B
Mon 08:46:29 33.3400 32.5050 122° Southeast 567 652 37,000 -2,329 Descending FlightAware ADS-B
Mon 08:47:13 33.2780 32.6230 122° Southeast 566 651 35,000 -2,500 Descending FlightAware ADS-B
Mon 08:47:53 33.2190 32.7400 121° Southeast 560 644 33,500 -2,175 Descending FlightAware ADS-B
Mon 08:48:33 33.1660 32.8440 121° Southeast 550 633 32,100 -2,023 Descending FlightAware ADS-B
Mon 08:49:19 33.1100 32.9520 122° Southeast 551 634 30,600 -2,360 Descending FlightAware ADS-B
Mon 08:50:02 33.0480 33.0710 122° Southeast 531 611 28,600 -2,545 Descending FlightAware ADS-B
Mon 08:50:58 32.9750 33.2060 123° Southeast 512 589 26,400 -1,455 Descending FlightAware ADS-B
Mon 08:51:41 32.9250 33.2920 125° Southeast 509 586 26,200 -2,047 Descending FlightAware ADS-B
Mon 08:52:23 32.8630 33.3930 126° Southeast 470 541 23,500 -2,894 Descending FlightAware ADS-B
Mon 08:53:06 32.8100 33.4820 125° Southeast 451 519 22,100 -1,902 Descending FlightAware ADS-B
Mon 08:53:45 32.7640 33.5620 124° Southeast 436 502 20,900 -1,807 Descending FlightAware ADS-B
Mon 08:54:29 32.7150 33.6470 124° Southeast 419 482 19,600 -1,765 Descending FlightAware ADS-B
Mon 08:55:10 32.6710 33.7210 125° Southeast 401 461 18,400 -1,694 Descending FlightAware ADS-B
Mon 08:55:54 32.6260 33.7990 124° Southeast 385 443 17,200 -1,571 Descending FlightAware ADS-B
Mon 08:56:34 32.5850 33.8670 126° Southeast 373 429 16,200 -1,500 Descending FlightAware ADS-B
Mon 08:57:18 32.5420 33.9400 125° Southeast 363 418 15,100 -1,518 Descending FlightAware ADS-B
Mon 08:57:57 32.5040 34.0040 125° Southeast 353 406 14,100 -1,518 Descending FlightAware ADS-B
Mon 08:58:41 32.4630 34.0720 126° Southeast 344 396 13,000 -1,465 Descending FlightAware ADS-B
Mon 08:59:23 32.4250 34.1350 126° Southeast 351 404 12,000 -1,412 Descending FlightAware ADS-B
Mon 09:00:06 32.3850 34.2030 125° Southeast 340 391 11,000 -1,373 Descending FlightAware ADS-B
Mon 09:00:46 32.3490 34.2630 125° Southeast 331 381 10,100 -870 Descending FlightAware ADS-B
Mon 09:01:15 32.3230 34.3060 126° Southeast 304 350 10,000 -154 Descending FlightAware ADS-B
Mon 09:01:25 32.3160 34.3180 125° Southeast 295 339 10,000 -333 Level FlightAware ADS-B
Mon 09:02:09 32.2850 34.3690 126° Southeast 289 333 9,700 -265 Descending FlightAware ADS-B
Mon 09:02:33 32.2700 34.3950 124° Southeast 289 333 9,700  Level FlightAware ADS-B
Mon 09:03:09 32.2460 34.4350 125° Southeast 289 333 9,700  Level FlightAware ADS-B
Mon 09:03:36 32.2290 34.4650 124° Southeast 289 333 9,700  Level FlightAware ADS-B
Mon 09:06:00 32.0365 34.8059 125° Southeast  Level FlightAware Approximate
Mon 09:07:00 32.0000 34.8667 125° Southeast  Level FlightAware Approximate
Mon 09:08:00 32.0095 34.8769 125° Southeast  Level Estimated
Mon 09:09:00 32.0095 34.8769 125° Southeast  Level Estimated
Mon 09:10:00 32.0095 34.8769 125° Southeast  Level Estimated
Mon 09:11:00 32.0095 34.8769 125° Southeast  Level Estimated
Mon 09:12:00 32.0095 34.8769 125° Southeast  Level Estimated
Mon 09:13:00 32.0095 34.8769 125° Southeast  Level Estimated

Login

Don't have an account? Register now (free) for customized features, flight alerts, and more!